Time;durP1;ratioP1;P1;durP2;ratioP2;P2;SDS_P1;SDS_P2;PMS_P1;PMS_P2;Temp;Humidity;BMP_temperature;BMP_pressure;BME280_temperature;BME280_humidity;BME280_pressure;Samples;Min_cycle;Max_cycle;Signal;HPM_P1;HPM_P2
2023/10/07 00:00:59;;;;;;;1.00;0.30;;;7.00;99.90;;;;;;1898461;74;27564;-93
2023/10/07 00:30:50;;;;;;;0.20;0.20;;;6.50;99.90;;;;;;1825074;76;27627;-91
2023/10/07 00:33:49;;;;;;;0.20;0.20;;;6.50;99.90;;;;;;1832778;76;25256;-91
2023/10/07 00:39:23;;;;;;;0.20;0.20;;;6.40;99.90;;;;;;1954422;72;26842;-91
2023/10/07 00:42:12;;;;;;;1.90;0.30;;;6.40;99.90;;;;;;1932360;72;25361;-93
2023/10/07 00:45:13;;;;;;;0.20;0.20;;;6.40;99.90;;;;;;1920420;73;25648;-91
2023/10/07 00:47:52;;;;;;;0.40;0.30;;;6.30;99.90;;;;;;1933365;73;25277;-92
2023/10/07 00:50:42;;;;;;;3.60;0.30;;;6.30;99.90;;;;;;1918833;73;25265;-92
2023/10/07 01:09:28;;;;;;;0.40;0.40;;;6.10;99.90;;;;;;1918094;74;27162;-91
2023/10/07 01:12:18;;;;;;;0.30;0.30;;;6.00;99.90;;;;;;1874511;75;25746;-91
2023/10/07 01:15:18;;;;;;;0.27;0.27;;;6.00;99.90;;;;;;1872692;75;25372;-91
2023/10/07 01:18:05;;;;;;;0.20;0.20;;;6.00;99.90;;;;;;1885719;75;25281;-92
2023/10/07 01:21:08;;;;;;;0.20;0.20;;;6.00;99.90;;;;;;1872900;75;25191;-92
2023/10/07 01:23:53;;;;;;;3.23;0.40;;;6.00;99.90;;;;;;1878909;75;25326;-92
2023/10/07 01:26:44;;;;;;;0.63;0.33;;;6.00;99.90;;;;;;1875266;75;25251;-92
2023/10/07 01:29:30;;;;;;;0.77;0.30;;;5.90;99.90;;;;;;1878020;75;25277;-92
2023/10/07 01:35:10;;;;;;;0.30;0.30;;;6.00;99.90;;;;;;1951103;72;26881;-93
2023/10/07 01:51:27;;;;;;;0.23;0.23;;;6.00;99.90;;;;;;1973111;71;27492;-90
2023/10/07 01:58:36;;;;;;;0.40;0.40;;;5.90;99.90;;;;;;1974851;71;26873;-93
2023/10/07 02:01:28;;;;;;;0.20;0.20;;;5.80;99.90;;;;;;2005746;69;25215;-92
2023/10/07 02:04:18;;;;;;;3.00;0.30;;;5.80;99.90;;;;;;2023276;69;25197;-91
2023/10/07 02:07:08;;;;;;;0.40;0.30;;;5.80;99.90;;;;;;2007845;70;25246;-92
2023/10/07 02:10:00;;;;;;;0.20;0.20;;;5.90;99.90;;;;;;2025011;70;25133;-91
2023/10/07 02:12:52;;;;;;;0.57;0.30;;;5.90;99.90;;;;;;2015598;70;25734;-91
2023/10/07 02:15:42;;;;;;;0.30;0.30;;;5.90;99.90;;;;;;2021281;70;25838;-91
2023/10/07 02:18:29;;;;;;;0.30;0.30;;;5.80;99.90;;;;;;2027101;70;26399;-91
2023/10/07 02:21:22;;;;;;;0.40;0.40;;;5.80;99.90;;;;;;2021332;70;25243;-91
2023/10/07 02:24:14;;;;;;;1.37;0.23;;;5.80;99.90;;;;;;2007037;70;25746;-91
2023/10/07 02:27:04;;;;;;;0.30;0.30;;;5.80;99.90;;;;;;2015487;70;25767;-91
2023/10/07 02:29:56;;;;;;;4.33;0.30;;;5.80;99.90;;;;;;2017143;70;25732;-90
2023/10/07 02:32:46;;;;;;;0.30;0.30;;;5.70;99.90;;;;;;2021430;70;25649;-91
2023/10/07 02:35:36;;;;;;;0.20;0.20;;;5.80;99.90;;;;;;2017307;70;25153;-91
2023/10/07 02:41:17;;;;;;;0.20;0.20;;;5.70;99.90;;;;;;1941358;72;26912;-91
2023/10/07 02:47:06;;;;;;;0.30;0.30;;;5.60;99.90;;;;;;1962521;72;26978;-92
2023/10/07 02:49:50;;;;;;;0.30;0.20;;;5.60;99.90;;;;;;1922603;73;25630;-91
2023/10/07 02:52:39;;;;;;;0.20;0.20;;;5.70;99.90;;;;;;1910969;74;25668;-91
2023/10/07 02:55:38;;;;;;;0.43;0.30;;;5.70;99.90;;;;;;1868194;76;25329;-92
2023/10/07 02:58:32;;;;;;;0.30;0.30;;;5.60;99.90;;;;;;1849185;75;25264;-92
2023/10/07 03:01:25;;;;;;;0.70;0.40;;;5.60;99.90;;;;;;1870139;75;25256;-92
2023/10/07 03:04:13;;;;;;;0.20;0.20;;;5.60;99.90;;;;;;1866535;75;25177;-92
2023/10/07 03:07:13;;;;;;;0.30;0.30;;;5.50;99.90;;;;;;1869763;75;25284;-92
2023/10/07 03:09:54;;;;;;;0.30;0.30;;;5.50;99.90;;;;;;1880278;74;25187;-92
2023/10/07 03:12:47;;;;;;;0.40;0.40;;;5.60;99.90;;;;;;1943774;72;25223;-92
2023/10/07 03:15:45;;;;;;;0.40;0.40;;;5.50;99.90;;;;;;1919139;72;25260;-91
2023/10/07 03:18:33;;;;;;;0.27;0.27;;;5.50;99.90;;;;;;1931085;72;25232;-92
2023/10/07 03:21:22;;;;;;;0.43;0.43;;;5.50;99.90;;;;;;1942650;73;25714;-92
2023/10/07 03:24:13;;;;;;;0.40;0.40;;;5.50;99.90;;;;;;1929181;72;25200;-92
2023/10/07 03:27:10;;;;;;;0.93;0.30;;;5.50;99.90;;;;;;1939193;73;25271;-92
2023/10/07 03:30:13;;;;;;;0.50;0.50;;;5.50;99.90;;;;;;1926132;72;25328;-91
2023/10/07 03:33:08;;;;;;;0.53;0.47;;;5.50;99.90;;;;;;1934001;72;25338;-91
2023/10/07 03:36:09;;;;;;;0.40;0.40;;;5.50;99.90;;;;;;1938492;73;25280;-91
2023/10/07 03:38:55;;;;;;;1.63;0.40;;;5.50;99.90;;;;;;1933852;72;25254;-91
2023/10/07 03:41:47;;;;;;;0.40;0.40;;;5.50;99.90;;;;;;1929319;73;25381;-92
2023/10/07 03:47:32;;;;;;;0.40;0.40;;;5.40;99.90;;;;;;1948537;72;26911;-92
2023/10/07 03:50:29;;;;;;;0.33;0.33;;;5.30;99.90;;;;;;1919953;73;25276;-91
2023/10/07 03:53:16;;;;;;;0.73;0.50;;;5.30;99.90;;;;;;1924714;72;25240;-91
2023/10/07 03:56:07;;;;;;;0.50;0.50;;;5.40;99.90;;;;;;1938982;72;25252;-92
2023/10/07 03:58:56;;;;;;;2.10;0.40;;;5.30;99.90;;;;;;1929991;72;25213;-91
2023/10/07 04:01:45;;;;;;;0.40;0.40;;;5.30;99.90;;;;;;1929681;72;25207;-91
2023/10/07 04:04:35;;;;;;;0.30;0.30;;;5.30;99.90;;;;;;1920128;72;25313;-91
2023/10/07 04:10:31;;;;;;;5.20;0.60;;;5.30;99.90;;;;;;1943016;72;27095;-90
2023/10/07 04:13:21;;;;;;;1.13;0.67;;;5.30;99.90;;;;;;1919983;73;25310;-93
2023/10/07 04:16:02;;;;;;;0.50;0.50;;;5.20;99.90;;;;;;1916137;73;25233;-91
2023/10/07 04:18:51;;;;;;;0.40;0.40;;;5.20;99.90;;;;;;1918104;73;25316;-90
2023/10/07 04:21:40;;;;;;;0.37;0.37;;;5.10;99.90;;;;;;1920006;73;25196;-92
2023/10/07 04:24:29;;;;;;;0.70;0.60;;;5.10;99.90;;;;;;1916151;73;25880;-92
2023/10/07 04:27:21;;;;;;;0.40;0.40;;;5.10;99.90;;;;;;1916404;73;25224;-93
2023/10/07 04:30:13;;;;;;;1.53;0.50;;;5.10;99.90;;;;;;1915934;73;25761;-93
2023/10/07 04:33:04;;;;;;;2.53;1.13;;;5.10;99.90;;;;;;1916778;73;25321;-93
2023/10/07 04:35:59;;;;;;;0.43;0.43;;;5.10;99.90;;;;;;1917344;73;25195;-93
2023/10/07 04:52:24;;;;;;;0.50;0.50;;;5.20;99.90;;;;;;1943779;72;26440;-93
2023/10/07 04:57:57;;;;;;;0.47;0.43;;;5.10;99.90;;;;;;1936670;72;27424;-90
2023/10/07 05:00:47;;;;;;;0.47;0.47;;;5.00;99.90;;;;;;1912606;75;25762;-92
2023/10/07 05:03:36;;;;;;;0.63;0.60;;;5.00;99.90;;;;;;1913739;73;25756;-91
2023/10/07 05:06:24;;;;;;;1.57;0.37;;;4.90;99.90;;;;;;1900311;74;25299;-91
2023/10/07 05:09:18;;;;;;;0.30;0.30;;;4.90;99.90;;;;;;1906373;74;25231;-91
2023/10/07 05:12:06;;;;;;;0.53;0.43;;;4.90;99.90;;;;;;1904003;73;25228;-91
2023/10/07 05:17:46;;;;;;;1.00;0.47;;;5.10;99.90;;;;;;1943387;72;26941;-93
2023/10/07 05:20:37;;;;;;;1.20;0.60;;;5.00;99.90;;;;;;1946249;73;25727;-92
2023/10/07 05:26:09;;;;;;;0.50;0.50;;;5.00;99.90;;;;;;1940398;72;27094;-91
2023/10/07 05:28:56;;;;;;;3.93;0.60;;;4.90;99.90;;;;;;1916062;74;25230;-90
2023/10/07 05:31:45;;;;;;;0.40;0.40;;;5.00;99.90;;;;;;1907828;73;25584;-91
2023/10/07 05:34:33;;;;;;;0.53;0.40;;;5.10;99.90;;;;;;1894553;74;25712;-92
2023/10/07 05:37:24;;;;;;;0.87;0.60;;;5.20;99.90;;;;;;1909750;74;25690;-93
2023/10/07 05:43:07;;;;;;;0.63;0.50;;;5.10;99.90;;;;;;1924289;72;27093;-91
2023/10/07 05:45:56;;;;;;;0.40;0.40;;;5.10;99.90;;;;;;1896631;73;25729;-91
2023/10/07 05:48:46;;;;;;;0.30;0.30;;;5.10;99.90;;;;;;1901938;73;25281;-92
2023/10/07 05:51:36;;;;;;;1.50;0.50;;;5.10;99.90;;;;;;1902937;74;25770;-92
2023/10/07 05:57:20;;;;;;;0.40;0.40;;;5.10;99.90;;;;;;1945775;71;27423;-93
2023/10/07 06:00:11;;;;;;;0.40;0.40;;;5.20;99.90;;;;;;1894360;75;25319;-93
2023/10/07 06:03:02;;;;;;;0.60;0.47;;;5.20;99.90;;;;;;1866260;75;25386;-93
2023/10/07 06:05:52;;;;;;;0.60;0.60;;;5.20;99.90;;;;;;1872313;75;25271;-93
2023/10/07 06:33:59;;;;;;;1.33;0.77;;;5.20;99.90;;;;;;1932497;73;26319;-92
2023/10/07 06:39:27;;;;;;;0.43;0.43;;;5.60;99.90;;;;;;1886812;74;27105;-90
2023/10/07 06:45:08;;;;;;;1.60;0.30;;;5.80;99.90;;;;;;1935506;72;27580;-91
2023/10/07 07:03:24;;;;;;;0.90;0.73;;;5.80;99.90;;;;;;1938214;73;26400;-91
2023/10/07 07:08:57;;;;;;;1.40;0.70;;;6.20;99.90;;;;;;1949541;72;26906;-91
2023/10/07 07:11:46;;;;;;;0.43;0.43;;;6.30;99.90;;;;;;1935691;72;25732;-93
2023/10/07 07:14:35;;;;;;;3.57;0.80;;;6.40;99.90;;;;;;1930329;72;25708;-91
2023/10/07 07:17:30;;;;;;;2.23;0.60;;;6.50;99.90;;;;;;1926166;72;25230;-93
2023/10/07 07:20:29;;;;;;;1.30;0.50;;;6.50;99.90;;;;;;1941589;72;25290;-91
2023/10/07 07:23:11;;;;;;;0.40;0.40;;;6.50;99.90;;;;;;1946920;73;26360;-91
2023/10/07 07:26:06;;;;;;;1.70;0.60;;;6.50;99.90;;;;;;1944213;72;25551;-92
2023/10/07 07:28:56;;;;;;;0.50;0.50;;;6.70;99.90;;;;;;1931152;72;25247;-92
2023/10/07 07:31:40;;;;;;;0.60;0.60;;;6.80;99.90;;;;;;1932977;72;25749;-92
2023/10/07 07:34:31;;;;;;;0.47;0.47;;;6.80;99.90;;;;;;1943712;72;25269;-92
2023/10/07 07:37:19;;;;;;;0.60;0.60;;;6.80;99.90;;;;;;1932963;72;25163;-93
2023/10/07 07:40:35;;;;;;;1.30;0.60;;;6.80;99.90;;;;;;1926052;72;25204;-92
2023/10/07 07:43:00;;;;;;;0.50;0.50;;;6.80;99.90;;;;;;1930190;72;25741;-92
2023/10/07 07:45:56;;;;;;;2.73;0.70;;;6.90;99.90;;;;;;1913149;73;25237;-92
2023/10/07 07:51:26;;;;;;;1.93;0.40;;;7.10;99.90;;;;;;1973073;70;26983;-91
2023/10/07 07:54:15;;;;;;;3.80;0.50;;;7.00;99.90;;;;;;1936082;73;25274;-93
2023/10/07 08:13:27;;;;;;;1.30;0.50;;;7.00;99.90;;;;;;1942579;72;27081;-93
2023/10/07 08:16:18;;;;;;;2.13;0.60;;;7.00;99.90;;;;;;1927998;73;25239;-93
2023/10/07 08:19:07;;;;;;;0.60;0.60;;;7.10;99.90;;;;;;1933342;73;25158;-91
2023/10/07 08:21:55;;;;;;;0.50;0.47;;;7.10;99.90;;;;;;1927825;73;25217;-90
2023/10/07 08:24:44;;;;;;;0.90;0.50;;;7.20;99.90;;;;;;1920623;73;25238;-91
2023/10/07 08:27:46;;;;;;;0.57;0.57;;;7.20;99.90;;;;;;1930104;73;25875;-91
2023/10/07 09:00:31;;;;;;;3.90;0.47;;;8.10;99.90;;;;;;1942608;72;27035;-93
2023/10/07 09:42:56;;;;;;;0.83;0.40;;;8.20;99.90;;;;;;1817835;76;27241;-91
2023/10/07 09:48:33;;;;;;;0.40;0.40;;;8.70;99.90;;;;;;1946392;72;27084;-91
2023/10/07 09:51:28;;;;;;;0.40;0.40;;;8.80;99.90;;;;;;1925114;73;25253;-93
2023/10/07 09:54:24;;;;;;;0.93;0.50;;;8.80;99.90;;;;;;1925436;73;25317;-91
2023/10/07 09:57:21;;;;;;;2.27;0.50;;;8.80;99.90;;;;;;1920467;73;25603;-91
2023/10/07 10:17:49;;;;;;;1.10;0.60;;;9.20;99.90;;;;;;1955980;72;27554;-92
2023/10/07 10:23:37;;;;;;;1.40;0.50;;;9.40;99.90;;;;;;1958035;72;27027;-91
2023/10/07 10:26:33;;;;;;;0.70;0.67;;;9.30;99.90;;;;;;1935328;73;25223;-91
2023/10/07 10:29:26;;;;;;;4.07;0.60;;;9.40;99.90;;;;;;1946457;73;25283;-92
2023/10/07 10:32:28;;;;;;;0.50;0.50;;;9.40;99.90;;;;;;1939239;73;25201;-92
2023/10/07 10:38:13;;;;;;;1.60;0.57;;;9.40;99.90;;;;;;1953066;72;27401;-91
2023/10/07 10:41:04;;;;;;;1.83;0.50;;;9.40;99.90;;;;;;1923521;72;25276;-92
2023/10/07 10:46:47;;;;;;;1.07;0.40;;;9.20;99.90;;;;;;1986222;71;27471;-90
2023/10/07 10:49:35;;;;;;;0.47;0.47;;;9.30;99.90;;;;;;1936049;73;25669;-93
2023/10/07 10:52:24;;;;;;;2.13;0.70;;;9.40;99.90;;;;;;1934406;73;25220;-92
2023/10/07 10:55:13;;;;;;;0.87;0.70;;;9.50;99.90;;;;;;1927895;73;25288;-91
2023/10/07 10:58:04;;;;;;;2.87;0.80;;;9.70;99.90;;;;;;1922921;73;25166;-90
2023/10/07 11:03:36;;;;;;;1.00;0.60;;;9.80;99.90;;;;;;1929513;72;26909;-90
2023/10/07 11:06:28;;;;;;;2.33;0.67;;;9.80;99.90;;;;;;1909419;74;25696;-90
2023/10/07 11:09:18;;;;;;;0.40;0.40;;;9.70;99.90;;;;;;1879267;74;25278;-91
2023/10/07 11:12:12;;;;;;;2.00;0.43;;;9.60;99.90;;;;;;1895077;73;25798;-91
2023/10/07 11:15:12;;;;;;;0.60;0.60;;;9.60;99.90;;;;;;1910258;75;25261;-93
2023/10/07 11:17:58;;;;;;;1.07;0.57;;;9.60;99.90;;;;;;1912196;73;25260;-91
2023/10/07 11:51:06;;;;;;;0.50;0.50;;;9.90;99.90;;;;;;1996853;69;25976;-90
2023/10/07 11:53:56;;;;;;;1.27;0.67;;;10.00;99.90;;;;;;1987424;71;25689;-92
2023/10/07 11:56:45;;;;;;;2.77;0.60;;;10.20;99.90;;;;;;1993093;71;25203;-90
2023/10/07 11:59:34;;;;;;;1.43;0.30;;;10.20;99.90;;;;;;1998150;71;25268;-90
2023/10/07 12:02:23;;;;;;;1.13;0.50;;;10.10;99.90;;;;;;1995648;71;25144;-90
2023/10/07 12:05:12;;;;;;;0.50;0.50;;;10.10;99.90;;;;;;1996421;71;25649;-93
2023/10/07 12:08:02;;;;;;;0.40;0.40;;;10.20;99.90;;;;;;1996596;71;25204;-90
2023/10/07 12:10:51;;;;;;;1.00;0.47;;;10.10;99.90;;;;;;1992420;71;25305;-88
2023/10/07 12:13:41;;;;;;;0.40;0.40;;;10.10;99.90;;;;;;1988134;71;25266;-92
2023/10/07 12:16:32;;;;;;;0.70;0.40;;;10.10;99.90;;;;;;1995086;71;25697;-91
2023/10/07 12:19:19;;;;;;;0.53;0.53;;;10.00;99.90;;;;;;2001537;70;25151;-91
2023/10/07 12:22:07;;;;;;;2.27;0.50;;;10.00;99.90;;;;;;1983551;71;25877;-90
2023/10/07 12:24:56;;;;;;;3.90;0.77;;;10.00;99.90;;;;;;1988916;71;25728;-92
2023/10/07 12:27:45;;;;;;;0.40;0.40;;;9.90;99.90;;;;;;1984981;70;25269;-91
2023/10/07 12:30:34;;;;;;;0.63;0.63;;;9.80;99.90;;;;;;1996341;70;25154;-90
2023/10/07 12:33:24;;;;;;;0.53;0.50;;;9.80;99.90;;;;;;1945410;72;25722;-90
2023/10/07 12:39:10;;;;;;;0.47;0.47;;;9.90;99.90;;;;;;1946120;72;27061;-90
2023/10/07 12:41:56;;;;;;;0.40;0.40;;;9.90;99.90;;;;;;1933024;73;25269;-90
2023/10/07 12:44:45;;;;;;;1.03;0.53;;;9.90;99.90;;;;;;1936580;73;25237;-89
2023/10/07 12:47:36;;;;;;;0.97;0.53;;;9.80;99.90;;;;;;1913412;73;25271;-92
2023/10/07 12:50:28;;;;;;;1.70;0.63;;;9.70;99.90;;;;;;1921074;73;25373;-92
2023/10/07 12:53:16;;;;;;;0.30;0.30;;;9.70;99.90;;;;;;1915807;73;25361;-90
2023/10/07 12:56:13;;;;;;;0.50;0.50;;;9.80;99.90;;;;;;1924790;73;25265;-92
2023/10/07 13:03:17;;;;;;;0.50;0.50;;;9.80;99.90;;;;;;1937391;72;26978;-89
2023/10/07 13:06:08;;;;;;;0.70;0.50;;;10.00;99.90;;;;;;1914229;74;25812;-90
2023/10/07 13:09:03;;;;;;;0.40;0.40;;;10.00;99.90;;;;;;1990039;71;25794;-92
2023/10/07 13:11:49;;;;;;;0.67;0.57;;;10.00;99.90;;;;;;2000153;70;25677;-90
2023/10/07 13:14:40;;;;;;;3.70;0.60;;;10.00;99.90;;;;;;1985824;70;25217;-90
2023/10/07 13:17:27;;;;;;;0.40;0.40;;;9.90;99.90;;;;;;1989513;70;25230;-90
2023/10/07 13:20:20;;;;;;;0.70;0.40;;;9.90;99.90;;;;;;1989892;70;25730;-89
2023/10/07 13:23:10;;;;;;;2.77;0.80;;;9.80;99.90;;;;;;1976196;71;25270;-91
2023/10/07 13:25:58;;;;;;;0.47;0.47;;;9.80;99.90;;;;;;1976748;71;25239;-91
2023/10/07 13:28:48;;;;;;;0.60;0.60;;;9.90;99.90;;;;;;2005528;70;25152;-89
2023/10/07 13:31:37;;;;;;;3.67;0.60;;;9.90;99.90;;;;;;1998496;70;25178;-89
2023/10/07 13:34:28;;;;;;;0.90;0.60;;;10.00;99.90;;;;;;1984683;71;25293;-89
2023/10/07 13:37:17;;;;;;;0.63;0.63;;;9.90;99.90;;;;;;1980580;70;25841;-89
2023/10/07 13:40:17;;;;;;;1.10;0.60;;;9.80;99.90;;;;;;1994210;70;25157;-91
2023/10/07 13:46:26;;;;;;;0.30;0.30;;;9.90;99.90;;;;;;2035308;70;26837;-90
2023/10/07 13:49:15;;;;;;;0.50;0.50;;;9.90;99.90;;;;;;1983097;71;25231;-90
2023/10/07 13:52:09;;;;;;;0.53;0.53;;;9.80;99.90;;;;;;1981830;71;25191;-90
2023/10/07 13:55:18;;;;;;;1.60;0.70;;;9.70;99.90;;;;;;1974479;71;25549;-92
2023/10/07 13:58:05;;;;;;;0.77;0.73;;;9.70;99.90;;;;;;1991861;71;25677;-92
2023/10/07 14:00:58;;;;;;;0.70;0.70;;;9.70;99.90;;;;;;1974087;72;25152;-90
2023/10/07 14:03:54;;;;;;;3.13;0.57;;;9.70;99.90;;;;;;1989078;71;25185;-89
2023/10/07 14:06:43;;;;;;;2.87;0.90;;;9.70;99.90;;;;;;1972915;72;25647;-90
2023/10/07 14:09:38;;;;;;;0.50;0.50;;;9.70;99.90;;;;;;1988367;71;25228;-90
2023/10/07 14:12:26;;;;;;;0.97;0.70;;;9.70;99.90;;;;;;1986729;71;25159;-90
2023/10/07 14:15:18;;;;;;;1.80;1.00;;;9.70;99.90;;;;;;1983399;71;25203;-90
2023/10/07 14:18:07;;;;;;;1.03;0.70;;;9.60;99.90;;;;;;1997877;71;25208;-90
2023/10/07 14:20:57;;;;;;;0.50;0.50;;;9.60;99.90;;;;;;1996563;71;25233;-91
2023/10/07 14:23:48;;;;;;;0.90;0.70;;;9.50;99.90;;;;;;1989940;71;25649;-91
2023/10/07 14:26:38;;;;;;;0.60;0.60;;;9.50;99.90;;;;;;1983628;71;25680;-91
2023/10/07 14:29:29;;;;;;;2.63;0.50;;;9.50;99.90;;;;;;1978885;71;25249;-91
2023/10/07 14:32:18;;;;;;;0.60;0.60;;;9.50;99.90;;;;;;1984294;71;25300;-91
2023/10/07 14:35:11;;;;;;;2.23;0.60;;;9.50;99.90;;;;;;1993015;71;25602;-91
2023/10/07 14:38:00;;;;;;;2.17;0.60;;;9.50;99.90;;;;;;1981869;71;25712;-91
2023/10/07 14:40:52;;;;;;;0.97;0.60;;;9.40;99.90;;;;;;1988416;71;25155;-91
2023/10/07 14:46:28;;;;;;;4.30;1.30;;;9.40;99.90;;;;;;1926986;74;27670;-90
2023/10/07 14:49:18;;;;;;;0.67;0.67;;;9.30;99.90;;;;;;1894437;73;25174;-92
2023/10/07 14:52:07;;;;;;;0.50;0.50;;;9.20;99.90;;;;;;1905220;73;25575;-89
2023/10/07 14:54:56;;;;;;;0.23;0.23;;;9.10;99.90;;;;;;1906026;75;25796;-91
2023/10/07 14:57:46;;;;;;;1.37;0.90;;;9.10;99.90;;;;;;1899592;73;25701;-91
2023/10/07 15:00:36;;;;;;;0.60;0.60;;;9.00;99.90;;;;;;1895431;75;25240;-91
2023/10/07 15:03:24;;;;;;;0.60;0.60;;;9.00;99.90;;;;;;1907483;73;25298;-91
2023/10/07 15:06:15;;;;;;;0.50;0.50;;;9.00;99.90;;;;;;1911634;75;25201;-91
2023/10/07 15:09:07;;;;;;;0.97;0.60;;;8.90;99.90;;;;;;1884999;75;25170;-91
2023/10/07 15:11:56;;;;;;;0.97;0.53;;;8.80;99.90;;;;;;1890609;74;25919;-91
2023/10/07 15:14:45;;;;;;;4.03;0.60;;;8.80;99.90;;;;;;1902519;75;25353;-91
2023/10/07 15:17:37;;;;;;;1.90;0.50;;;8.80;99.90;;;;;;1897153;75;25240;-91
2023/10/07 15:20:26;;;;;;;0.77;0.77;;;8.70;99.90;;;;;;1899717;75;25266;-91
2023/10/07 15:23:15;;;;;;;1.07;0.70;;;8.70;99.90;;;;;;1894888;75;25156;-91
2023/10/07 15:26:05;;;;;;;0.50;0.50;;;8.60;99.90;;;;;;1884110;75;25285;-91
2023/10/07 15:28:54;;;;;;;0.60;0.60;;;8.50;99.90;;;;;;1883235;75;25643;-91
2023/10/07 15:31:43;;;;;;;1.40;0.60;;;8.40;99.90;;;;;;1907658;75;25711;-91
2023/10/07 15:34:32;;;;;;;1.03;0.40;;;8.30;99.90;;;;;;1900393;75;25208;-91
2023/10/07 15:37:22;;;;;;;1.80;0.60;;;8.30;99.90;;;;;;1897362;75;25212;-91
2023/10/07 15:42:56;;;;;;;0.60;0.50;;;8.10;99.90;;;;;;1913544;72;27215;-90
2023/10/07 15:45:49;;;;;;;1.77;0.47;;;8.00;99.90;;;;;;1865080;75;25234;-90
2023/10/07 15:48:38;;;;;;;0.63;0.50;;;8.00;99.90;;;;;;1870211;75;25699;-90
2023/10/07 15:51:27;;;;;;;0.50;0.50;;;7.90;99.90;;;;;;1894083;75;25217;-92
2023/10/07 15:54:17;;;;;;;1.17;0.70;;;7.80;99.90;;;;;;1873246;75;25180;-92
2023/10/07 15:57:08;;;;;;;0.50;0.50;;;7.70;99.90;;;;;;1880858;75;25303;-91
2023/10/07 15:59:56;;;;;;;1.63;0.60;;;7.70;99.90;;;;;;1876056;75;25674;-91
2023/10/07 16:02:48;;;;;;;0.70;0.60;;;7.50;99.90;;;;;;1869789;75;25727;-91
2023/10/07 16:05:37;;;;;;;0.37;0.37;;;7.40;99.90;;;;;;1858171;75;25666;-91
2023/10/07 16:08:26;;;;;;;0.63;0.50;;;7.40;99.90;;;;;;1871177;75;25273;-91
2023/10/07 16:14:34;;;;;;;0.90;0.60;;;7.40;99.90;;;;;;1959332;72;28279;-90
2023/10/07 16:17:25;;;;;;;0.50;0.50;;;7.30;99.90;;;;;;1921595;74;25248;-89
2023/10/07 16:20:13;;;;;;;0.67;0.60;;;7.20;99.90;;;;;;1999075;71;25212;-90
2023/10/07 16:23:04;;;;;;;0.60;0.60;;;7.20;99.90;;;;;;2002859;71;25563;-90
2023/10/07 16:25:53;;;;;;;0.40;0.40;;;7.20;99.90;;;;;;1997491;71;25169;-92
2023/10/07 16:31:28;;;;;;;0.80;0.80;;;7.00;99.90;;;;;;1944485;72;27029;-90
2023/10/07 16:34:17;;;;;;;0.67;0.67;;;7.00;99.90;;;;;;1916460;75;25295;-90
2023/10/07 16:37:14;;;;;;;1.40;0.70;;;7.00;99.90;;;;;;1933482;73;25239;-92
2023/10/07 16:42:48;;;;;;;1.40;0.90;;;7.00;99.90;;;;;;1926566;72;27116;-90
2023/10/07 16:45:39;;;;;;;1.83;1.00;;;7.00;99.90;;;;;;1879358;76;25212;-90
2023/10/07 16:48:29;;;;;;;0.73;0.70;;;6.90;99.90;;;;;;1883259;76;25277;-90
2023/10/07 16:51:20;;;;;;;1.67;1.27;;;6.80;99.90;;;;;;1873246;76;25740;-90
2023/10/07 16:54:10;;;;;;;2.80;0.90;;;6.70;99.90;;;;;;1881110;76;25720;-90
2023/10/07 16:56:59;;;;;;;0.80;0.80;;;6.70;99.90;;;;;;1872936;76;25311;-90
2023/10/07 17:03:41;;;;;;;0.40;0.40;;;6.60;99.90;;;;;;1881467;76;25283;-92
2023/10/07 17:06:29;;;;;;;0.50;0.50;;;6.60;99.90;;;;;;1862124;76;25616;-90
2023/10/07 17:09:22;;;;;;;1.13;1.07;;;6.60;99.90;;;;;;1866121;76;25787;-89
2023/10/07 17:12:10;;;;;;;0.60;0.60;;;6.50;99.90;;;;;;1867913;76;25358;-90
2023/10/07 17:17:52;;;;;;;0.77;0.77;;;6.60;99.90;;;;;;1956508;72;26909;-90
2023/10/07 17:20:42;;;;;;;0.87;0.70;;;6.50;99.90;;;;;;1936031;73;25313;-90
2023/10/07 17:23:33;;;;;;;0.80;0.67;;;6.50;99.90;;;;;;1928762;72;25745;-92
2023/10/07 17:26:23;;;;;;;0.70;0.70;;;6.40;99.90;;;;;;1889527;75;25182;-90
2023/10/07 17:29:13;;;;;;;0.60;0.60;;;6.40;99.90;;;;;;1880321;75;25262;-90
2023/10/07 17:34:55;;;;;;;0.67;0.67;;;6.30;99.90;;;;;;1963382;72;27122;-92
2023/10/07 17:37:45;;;;;;;0.70;0.70;;;6.20;99.90;;;;;;1928230;73;25165;-90
2023/10/07 17:40:35;;;;;;;0.70;0.70;;;6.20;99.90;;;;;;1916317;73;25337;-87
2023/10/07 17:46:06;;;;;;;1.90;0.60;;;6.20;99.90;;;;;;1964625;71;27034;-88
2023/10/07 17:48:55;;;;;;;1.70;0.60;;;6.20;99.90;;;;;;1981337;70;25291;-88
2023/10/07 17:51:43;;;;;;;0.70;0.70;;;6.10;99.90;;;;;;1976600;71;25703;-88
2023/10/07 17:54:32;;;;;;;0.67;0.67;;;6.10;99.90;;;;;;1967112;71;25682;-89
2023/10/07 17:57:21;;;;;;;0.80;0.80;;;6.00;99.90;;;;;;1987907;70;25300;-89
2023/10/07 18:00:13;;;;;;;1.17;1.03;;;6.00;99.90;;;;;;1979961;70;25228;-89
2023/10/07 18:03:02;;;;;;;1.83;1.10;;;5.90;99.90;;;;;;1968339;72;25712;-89
2023/10/07 18:05:51;;;;;;;1.50;0.87;;;5.90;99.90;;;;;;1980481;71;25232;-89
2023/10/07 18:08:41;;;;;;;1.00;0.90;;;5.80;99.90;;;;;;1983307;70;25276;-89
2023/10/07 18:11:30;;;;;;;3.20;0.80;;;5.80;99.90;;;;;;1994209;70;25310;-89
2023/10/07 18:14:19;;;;;;;0.80;0.67;;;5.80;99.90;;;;;;1965128;70;25147;-89
2023/10/07 18:19:54;;;;;;;1.00;0.60;;;5.70;99.90;;;;;;1962930;72;27025;-88
2023/10/07 18:22:45;;;;;;;6.90;1.40;;;5.70;99.90;;;;;;1917040;73;25710;-88
2023/10/07 18:25:33;;;;;;;2.00;1.10;;;5.60;99.90;;;;;;1926095;73;25222;-88
2023/10/07 18:28:21;;;;;;;1.93;1.37;;;5.70;99.90;;;;;;1916932;73;25772;-90
2023/10/07 18:35:56;;;;;;;0.83;0.83;;;5.60;99.90;;;;;;1957597;72;27652;-88
2023/10/07 18:52:08;;;;;;;0.77;0.60;;;5.50;99.90;;;;;;1938087;72;27020;-88
2023/10/07 18:57:49;;;;;;;0.70;0.70;;;5.30;99.90;;;;;;1947967;72;27353;-88
2023/10/07 19:00:38;;;;;;;0.80;0.80;;;5.20;99.90;;;;;;1918944;73;25237;-89
2023/10/07 19:03:27;;;;;;;0.80;0.80;;;5.20;99.90;;;;;;1916097;73;25271;-88
2023/10/07 19:06:17;;;;;;;0.87;0.80;;;5.10;99.90;;;;;;1916593;73;25658;-88
2023/10/07 19:09:07;;;;;;;1.77;0.80;;;5.10;99.90;;;;;;1924888;73;25612;-89
2023/10/07 19:11:55;;;;;;;0.70;0.67;;;5.10;99.90;;;;;;1924765;73;25277;-89
2023/10/07 19:14:43;;;;;;;0.80;0.80;;;5.10;99.90;;;;;;1923913;73;25288;-89
2023/10/07 19:20:16;;;;;;;0.53;0.53;;;5.10;99.90;;;;;;1927854;72;27066;-88
2023/10/07 19:25:47;;;;;;;1.27;0.97;;;5.10;99.90;;;;;;1942331;72;26987;-88
2023/10/07 19:28:35;;;;;;;0.70;0.67;;;5.20;99.90;;;;;;1899309;74;25690;-88
2023/10/07 19:31:24;;;;;;;1.10;0.50;;;5.10;99.90;;;;;;1898456;74;25235;-90
2023/10/07 19:34:12;;;;;;;1.13;1.00;;;5.10;99.90;;;;;;1899793;75;25146;-90
2023/10/07 19:37:04;;;;;;;0.90;0.77;;;5.10;99.90;;;;;;1908221;75;25239;-90
2023/10/07 19:42:38;;;;;;;0.97;0.63;;;5.10;99.90;;;;;;1944311;72;27062;-88
2023/10/07 19:48:11;;;;;;;0.77;0.77;;;4.90;99.90;;;;;;1928291;72;27135;-88
2023/10/07 19:50:59;;;;;;;1.00;0.90;;;4.90;99.90;;;;;;1886829;75;25266;-88
2023/10/07 19:53:48;;;;;;;0.80;0.80;;;4.80;99.90;;;;;;1887726;75;25268;-88
2023/10/07 19:56:37;;;;;;;0.93;0.80;;;4.80;99.90;;;;;;1871727;75;25217;-90
2023/10/07 19:59:26;;;;;;;1.00;0.80;;;4.80;99.90;;;;;;1873976;75;25271;-88
2023/10/07 20:02:15;;;;;;;0.77;0.70;;;4.80;99.90;;;;;;1887099;75;25216;-90
2023/10/07 20:05:04;;;;;;;0.90;0.80;;;4.70;99.90;;;;;;1899411;75;25235;-88
2023/10/07 20:07:56;;;;;;;1.33;0.60;;;4.60;99.90;;;;;;1874450;75;25691;-88
2023/10/07 20:10:48;;;;;;;2.23;0.80;;;4.50;99.90;;;;;;1881568;75;25762;-88
2023/10/07 20:13:37;;;;;;;1.47;0.70;;;4.40;99.90;;;;;;1887345;75;25278;-88
2023/10/07 20:16:26;;;;;;;1.60;1.50;;;4.20;99.90;;;;;;1877673;75;25938;-90
2023/10/07 20:19:14;;;;;;;1.20;1.10;;;4.10;99.90;;;;;;1878524;75;25305;-88
2023/10/07 20:22:03;;;;;;;2.73;1.30;;;4.00;99.90;;;;;;1881095;75;25179;-90
2023/10/07 20:24:52;;;;;;;3.03;1.27;;;3.90;99.90;;;;;;1891917;75;25188;-90
2023/10/07 20:27:43;;;;;;;1.80;1.00;;;3.80;99.90;;;;;;1890312;75;25300;-88
2023/10/07 20:30:32;;;;;;;1.07;0.97;;;3.80;99.90;;;;;;1893230;75;25321;-90
2023/10/07 20:33:21;;;;;;;1.27;0.80;;;3.80;99.90;;;;;;1825696;77;25275;-88
2023/10/07 20:38:57;;;;;;;0.77;0.77;;;3.90;99.90;;;;;;1903543;74;27012;-88
2023/10/07 20:41:46;;;;;;;1.77;0.80;;;4.00;99.90;;;;;;1876388;75;25349;-88
2023/10/07 20:47:22;;;;;;;2.20;0.80;;;4.20;99.90;;;;;;1925121;72;27068;-90
2023/10/07 20:53:54;;;;;;;1.00;0.70;;;4.30;99.90;;;;;;1971935;71;26565;-87
2023/10/07 20:56:44;;;;;;;0.70;0.60;;;4.40;99.90;;;;;;1927257;73;25215;-88
2023/10/07 21:02:16;;;;;;;0.60;0.60;;;4.50;99.90;;;;;;1966238;71;27387;-90
2023/10/07 21:05:05;;;;;;;0.77;0.77;;;4.60;99.90;;;;;;1898759;75;25265;-90
2023/10/07 21:07:53;;;;;;;0.60;0.60;;;4.60;99.90;;;;;;1892560;75;25245;-91
2023/10/07 21:10:43;;;;;;;2.13;0.70;;;4.50;99.90;;;;;;1897996;75;25245;-90
2023/10/07 21:13:32;;;;;;;0.60;0.60;;;4.60;99.90;;;;;;1902598;75;25377;-90
2023/10/07 21:18:59;;;;;;;2.67;0.80;;;4.40;99.90;;;;;;1929682;72;27054;-88
2023/10/07 21:21:48;;;;;;;1.60;0.90;;;4.40;99.90;;;;;;1906020;74;25307;-90
2023/10/07 21:24:37;;;;;;;0.60;0.50;;;4.30;99.90;;;;;;1910258;74;25143;-89
2023/10/07 21:27:26;;;;;;;0.93;0.63;;;4.30;99.90;;;;;;1908178;74;25359;-90